createdAt,value
2023-02-03T00:02:19.562Z,6.23
2023-02-03T00:04:46.153Z,7.17
2023-02-03T00:07:13.612Z,7.47
2023-02-03T00:09:40.447Z,6.20
2023-02-03T00:12:07.445Z,6.40
2023-02-03T00:14:34.048Z,6.30
2023-02-03T00:17:00.494Z,8.47
2023-02-03T00:19:27.008Z,11.27
2023-02-03T00:21:53.462Z,7.57
2023-02-03T00:24:20.776Z,8.57
2023-02-03T00:26:47.220Z,6.57
2023-02-03T00:29:14.766Z,8.60
2023-02-03T00:31:41.338Z,10.07
2023-02-03T00:34:07.891Z,10.63
2023-02-03T00:36:34.343Z,9.37
2023-02-03T00:39:01.623Z,13.17
2023-02-03T00:41:29.759Z,14.00
2023-02-03T00:43:56.252Z,16.70
2023-02-03T00:46:22.761Z,19.17
2023-02-03T00:48:49.232Z,16.93
2023-02-03T00:51:15.687Z,22.20
2023-02-03T00:53:42.192Z,26.63
2023-02-03T00:56:12.719Z,22.47
2023-02-03T00:58:42.406Z,24.60
2023-02-03T01:01:08.964Z,18.13
2023-02-03T01:03:35.797Z,29.67
2023-02-03T01:06:15.608Z,26.63
2023-02-03T01:08:42.583Z,19.50
2023-02-03T01:11:10.519Z,29.93
2023-02-03T01:13:37.691Z,19.93
2023-02-03T01:16:07.761Z,21.27
2023-02-03T01:18:34.311Z,24.80
2023-02-03T01:21:06.500Z,26.43
2023-02-03T01:23:32.989Z,26.63
2023-02-03T01:26:04.838Z,25.13
2023-02-03T01:28:33.814Z,23.00
2023-02-03T01:31:18.475Z,24.27
2023-02-03T01:33:48.946Z,23.77
2023-02-03T01:36:16.755Z,21.80
2023-02-03T01:38:43.501Z,15.67
2023-02-03T01:41:14.744Z,23.40
2023-02-03T01:43:43.401Z,24.37
2023-02-03T01:46:32.096Z,20.43
2023-02-03T01:49:34.198Z,19.90
2023-02-03T01:52:00.802Z,26.07
2023-02-03T01:54:30.428Z,21.90
2023-02-03T01:57:01.460Z,25.63
2023-02-03T01:59:29.212Z,24.53
2023-02-03T02:01:58.379Z,20.47
2023-02-03T02:04:28.945Z,22.83
2023-02-03T02:06:58.727Z,22.50
2023-02-03T02:09:26.308Z,28.43
2023-02-03T02:11:52.787Z,19.80
2023-02-03T02:14:19.485Z,12.43
2023-02-03T02:16:47.833Z,18.70
2023-02-03T02:19:32.433Z,24.47
2023-02-03T02:22:17.568Z,16.67
2023-02-03T02:24:53.238Z,20.50
2023-02-03T02:27:38.062Z,20.27
2023-02-03T02:30:46.291Z,19.00
2023-02-03T02:33:18.879Z,23.30
2023-02-03T02:35:54.454Z,21.70
2023-02-03T02:38:29.797Z,17.90
2023-02-03T02:41:19.998Z,15.13
2023-02-03T02:43:54.554Z,13.53
2023-02-03T02:46:33.330Z,21.57
2023-02-03T02:49:04.945Z,22.23
2023-02-03T02:51:32.460Z,15.40
2023-02-03T02:54:04.241Z,19.00
2023-02-03T02:56:31.849Z,18.73
2023-02-03T02:58:59.953Z,17.00
2023-02-03T03:01:26.529Z,18.50
2023-02-03T03:03:53.150Z,9.17
2023-02-03T03:06:26.330Z,19.93
2023-02-03T03:09:03.601Z,22.37
2023-02-03T03:11:33.013Z,21.50
2023-02-03T03:13:59.855Z,21.80
2023-02-03T03:16:27.883Z,20.33
2023-02-03T03:19:12.467Z,16.47
2023-02-03T03:21:43.587Z,20.87
2023-02-03T03:24:12.777Z,20.17
2023-02-03T03:26:47.551Z,22.00
2023-02-03T03:29:35.282Z,16.57
2023-02-03T03:32:02.701Z,27.27
2023-02-03T03:34:29.430Z,19.60
2023-02-03T03:37:11.049Z,23.23
2023-02-03T03:39:42.726Z,17.47
2023-02-03T03:42:38.713Z,14.30
2023-02-03T03:45:14.197Z,18.27
2023-02-03T03:48:01.076Z,22.50
2023-02-03T03:50:42.611Z,12.50
2023-02-03T03:53:09.831Z,19.43
2023-02-03T03:55:37.197Z,16.70
2023-02-03T03:58:05.977Z,18.57
2023-02-03T04:00:34.636Z,17.13
2023-02-03T04:03:06.554Z,18.57
2023-02-03T04:05:33.798Z,15.80
2023-02-03T04:08:01.005Z,20.30
2023-02-03T04:10:32.188Z,14.73
2023-02-03T04:12:59.108Z,16.73
2023-02-03T04:15:25.890Z,21.03
2023-02-03T04:17:52.912Z,15.10
2023-02-03T04:20:19.447Z,18.70
2023-02-03T04:22:45.896Z,18.67
2023-02-03T04:25:12.426Z,12.40
2023-02-03T04:27:38.967Z,15.43
2023-02-03T04:30:06.303Z,15.97
2023-02-03T04:32:32.805Z,16.63
2023-02-03T04:34:59.262Z,17.27
2023-02-03T04:37:26.882Z,17.73
2023-02-03T04:39:55.436Z,16.90
2023-02-03T04:42:22.760Z,20.40
2023-02-03T04:44:49.240Z,19.97
2023-02-03T04:47:16.433Z,18.00
2023-02-03T04:49:42.952Z,22.07
2023-02-03T04:52:09.790Z,16.40
2023-02-03T04:54:36.543Z,21.10
2023-02-03T04:57:03.161Z,23.37
2023-02-03T04:59:29.655Z,17.73
2023-02-03T05:01:56.201Z,20.87
2023-02-03T05:04:22.682Z,24.37
2023-02-03T05:06:49.387Z,18.10
2023-02-03T05:09:16.083Z,13.40
2023-02-03T05:11:42.612Z,24.53
2023-02-03T05:14:09.056Z,24.60
2023-02-03T05:16:35.586Z,22.30
2023-02-03T05:19:02.104Z,25.57
2023-02-03T05:21:28.578Z,19.13
2023-02-03T05:23:55.015Z,18.53
2023-02-03T05:26:21.478Z,24.70
2023-02-03T05:28:47.928Z,22.90
2023-02-03T05:31:14.524Z,19.77
2023-02-03T05:33:41.065Z,20.97
2023-02-03T05:36:08.044Z,21.23
2023-02-03T05:38:34.490Z,22.13
2023-02-03T05:41:19.562Z,19.27
2023-02-03T05:43:46.010Z,22.97
2023-02-03T05:46:12.593Z,19.60
2023-02-03T05:48:39.127Z,13.90
2023-02-03T05:51:05.801Z,21.07
2023-02-03T05:53:32.254Z,15.60
2023-02-03T05:55:58.747Z,21.27
2023-02-03T05:58:25.180Z,17.07
2023-02-03T06:00:52.108Z,22.43
2023-02-03T06:03:18.656Z,16.60
2023-02-03T06:05:45.253Z,22.83
2023-02-03T06:08:11.738Z,24.57
2023-02-03T06:10:38.288Z,22.20
2023-02-03T06:13:13.020Z,21.57
2023-02-03T06:15:40.003Z,23.43
2023-02-03T06:18:07.156Z,24.43
2023-02-03T06:20:33.745Z,29.27
2023-02-03T06:23:00.267Z,28.20
2023-02-03T06:25:27.306Z,18.57
2023-02-03T06:27:53.802Z,25.77
2023-02-03T06:30:20.788Z,27.03
2023-02-03T06:32:48.320Z,25.60
2023-02-03T06:35:14.880Z,29.00
2023-02-03T06:37:41.436Z,24.73
2023-02-03T06:40:08.374Z,22.60
2023-02-03T06:42:34.871Z,27.87
2023-02-03T06:45:01.411Z,21.03
2023-02-03T06:47:27.931Z,24.07
2023-02-03T06:49:54.426Z,22.20
2023-02-03T06:52:20.885Z,22.07
2023-02-03T06:54:47.477Z,27.70
2023-02-03T06:57:14.087Z,21.90
2023-02-03T06:59:40.549Z,25.37
2023-02-03T07:02:07.013Z,18.87
2023-02-03T07:04:33.444Z,13.10
2023-02-03T07:06:59.946Z,14.17
2023-02-03T07:09:26.454Z,14.87
2023-02-03T07:11:52.898Z,11.20
2023-02-03T07:14:19.349Z,14.80
2023-02-03T07:16:45.833Z,13.73
2023-02-03T07:19:12.388Z,10.57
2023-02-03T07:21:38.876Z,15.27
2023-02-03T07:24:05.492Z,16.60
2023-02-03T07:26:32.075Z,18.23
2023-02-03T07:29:00.729Z,23.13
2023-02-03T07:31:27.443Z,17.23
2023-02-03T07:33:54.008Z,18.07
2023-02-03T07:36:20.522Z,22.17
2023-02-03T07:38:46.974Z,17.03
2023-02-03T07:41:13.518Z,13.43
2023-02-03T07:43:39.961Z,19.30
2023-02-03T07:46:06.509Z,20.13
2023-02-03T07:48:33.018Z,19.57
2023-02-03T07:50:59.512Z,24.00
2023-02-03T07:53:26.416Z,24.83
2023-02-03T07:55:52.904Z,24.87
2023-02-03T07:58:19.430Z,25.43
2023-02-03T08:00:45.932Z,22.97
2023-02-03T08:03:12.461Z,21.90
2023-02-03T08:05:38.924Z,24.80
2023-02-03T08:08:05.455Z,31.53
2023-02-03T08:10:32.139Z,24.43
2023-02-03T08:12:58.576Z,16.30
2023-02-03T08:15:25.041Z,24.40
2023-02-03T08:17:52.787Z,28.07
2023-02-03T08:20:19.298Z,22.13
2023-02-03T08:22:46.313Z,28.67
2023-02-03T08:25:13.391Z,21.67
2023-02-03T08:27:40.303Z,27.80
2023-02-03T08:30:09.201Z,22.63
2023-02-03T08:32:35.741Z,33.83
2023-02-03T08:35:02.309Z,35.77
2023-02-03T08:37:31.754Z,25.87
2023-02-03T08:39:58.814Z,27.53
2023-02-03T08:42:25.450Z,36.47
2023-02-03T08:44:51.910Z,37.30
2023-02-03T08:47:18.774Z,36.93
2023-02-03T08:49:45.490Z,30.10
2023-02-03T08:52:12.915Z,37.80
2023-02-03T08:54:39.963Z,40.50
2023-02-03T08:57:06.864Z,27.93
2023-02-03T08:59:36.394Z,45.67
2023-02-03T09:02:07.769Z,47.50
2023-02-03T09:04:34.327Z,37.57
2023-02-03T09:07:02.620Z,39.50
2023-02-03T09:09:31.275Z,39.03
2023-02-03T09:12:02.157Z,35.77
2023-02-03T09:14:29.763Z,34.20
2023-02-03T09:16:56.282Z,37.70
2023-02-03T09:19:22.861Z,39.13
2023-02-03T09:21:49.483Z,44.77
2023-02-03T09:24:17.558Z,42.10
2023-02-03T09:26:44.653Z,34.00
2023-02-03T09:29:11.312Z,42.90
2023-02-03T09:31:37.859Z,43.50
2023-02-03T09:34:04.375Z,46.57
2023-02-03T09:36:30.850Z,27.40
2023-02-03T09:38:58.137Z,38.80
2023-02-03T09:41:44.263Z,38.20
2023-02-03T09:44:20.611Z,37.43
2023-02-03T09:47:01.284Z,40.23
2023-02-03T09:49:37.828Z,37.17
2023-02-03T09:52:10.270Z,37.37
2023-02-03T09:54:44.121Z,40.43
2023-02-03T09:57:18.268Z,30.50
2023-02-03T09:59:44.790Z,39.70
2023-02-03T10:02:25.687Z,27.90
2023-02-03T10:05:00.411Z,31.80
2023-02-03T10:07:39.679Z,29.57
2023-02-03T10:10:18.633Z,23.77
2023-02-03T10:12:59.316Z,41.07
2023-02-03T10:15:31.659Z,42.00
2023-02-03T10:18:06.554Z,34.80
2023-02-03T10:20:37.568Z,39.90
2023-02-03T10:23:09.797Z,39.70
2023-02-03T10:25:38.603Z,34.53
2023-02-03T10:28:11.702Z,29.60
2023-02-03T10:30:45.703Z,42.73
2023-02-03T10:33:16.519Z,33.70
2023-02-03T10:35:53.314Z,39.53
2023-02-03T10:38:34.206Z,36.20
2023-02-03T10:41:00.853Z,45.27
2023-02-03T10:43:47.535Z,30.93
2023-02-03T10:46:40.555Z,38.53
2023-02-03T10:49:07.150Z,33.70
2023-02-03T10:51:40.450Z,28.30
2023-02-03T10:54:27.333Z,31.40
2023-02-03T10:56:57.551Z,35.77
2023-02-03T10:59:35.664Z,29.83
2023-02-03T11:02:14.781Z,29.83
2023-02-03T11:04:41.279Z,27.37
2023-02-03T11:07:24.150Z,23.00
2023-02-03T11:09:50.778Z,28.83
2023-02-03T11:12:19.561Z,34.83
2023-02-03T11:14:49.888Z,37.57
2023-02-03T11:17:26.913Z,38.10
2023-02-03T11:19:54.892Z,33.03
2023-02-03T11:22:28.479Z,36.40
2023-02-03T11:24:55.323Z,33.23
2023-02-03T11:27:24.104Z,30.13
2023-02-03T11:29:54.679Z,30.00
2023-02-03T11:32:34.086Z,29.40
2023-02-03T11:35:14.362Z,32.20
2023-02-03T11:37:45.247Z,32.40
2023-02-03T11:40:11.745Z,30.93
2023-02-03T11:42:41.460Z,26.87
2023-02-03T11:45:15.916Z,30.63
2023-02-03T11:47:51.623Z,31.37
2023-02-03T11:50:36.028Z,23.47
2023-02-03T11:53:22.962Z,37.40
2023-02-03T11:56:07.319Z,34.20
2023-02-03T11:58:44.485Z,30.53
2023-02-03T12:01:48.591Z,34.77
2023-02-03T12:04:24.146Z,26.90
2023-02-03T12:07:11.889Z,29.17
2023-02-03T12:10:06.083Z,23.33
2023-02-03T12:12:49.599Z,26.70
2023-02-03T12:15:46.916Z,26.60
2023-02-03T12:18:43.370Z,26.27
2023-02-03T12:21:34.176Z,16.60
2023-02-03T12:24:19.563Z,33.27
2023-02-03T12:26:56.671Z,29.60
2023-02-03T12:29:32.388Z,28.03
2023-02-03T12:32:02.046Z,29.93
2023-02-03T12:34:33.631Z,20.33
2023-02-03T12:37:15.677Z,34.83
2023-02-03T12:39:47.088Z,26.67
2023-02-03T12:42:28.365Z,24.77
2023-02-03T12:45:19.134Z,31.00
2023-02-03T12:47:51.104Z,27.50
2023-02-03T12:50:40.751Z,26.70
2023-02-03T12:53:35.235Z,31.40
2023-02-03T12:56:07.978Z,21.67
2023-02-03T12:58:41.242Z,25.67
2023-02-03T13:01:20.552Z,22.13
2023-02-03T13:04:05.768Z,18.80
2023-02-03T13:06:41.298Z,19.93
2023-02-03T13:09:16.859Z,34.47
2023-02-03T13:11:51.937Z,25.57
2023-02-03T13:14:45.183Z,29.17
2023-02-03T13:17:22.634Z,39.33
2023-02-03T13:19:52.604Z,21.23
2023-02-03T13:22:23.976Z,30.77
2023-02-03T13:24:56.093Z,26.37
2023-02-03T13:27:40.895Z,33.43
2023-02-03T13:30:22.641Z,29.73
2023-02-03T13:32:58.595Z,33.83
2023-02-03T13:35:43.954Z,30.53
2023-02-03T13:38:24.922Z,30.10
2023-02-03T13:41:23.713Z,25.57
2023-02-03T13:43:51.330Z,31.70
2023-02-03T13:46:32.359Z,28.33
2023-02-03T13:49:00.680Z,29.03
2023-02-03T13:51:34.306Z,30.70
2023-02-03T13:54:03.349Z,33.53
2023-02-03T13:56:31.112Z,35.57
2023-02-03T13:59:20.605Z,25.50
2023-02-03T14:01:47.093Z,33.27
2023-02-03T14:04:25.688Z,34.57
2023-02-03T14:06:55.088Z,36.67
2023-02-03T14:09:30.754Z,29.10
2023-02-03T14:12:15.530Z,30.33
2023-02-03T14:14:58.453Z,29.37
2023-02-03T14:17:34.150Z,33.90
2023-02-03T14:20:01.309Z,29.23
2023-02-03T14:22:28.642Z,39.60
2023-02-03T14:24:57.166Z,38.40
2023-02-03T14:27:25.428Z,19.73
2023-02-03T14:30:11.578Z,26.93
2023-02-03T14:32:49.642Z,37.80
2023-02-03T14:35:25.566Z,35.47
2023-02-03T14:37:53.850Z,35.87
2023-02-03T14:40:43.589Z,42.53
2023-02-03T14:43:35.434Z,28.27
2023-02-03T14:46:27.031Z,36.27
2023-02-03T14:49:19.577Z,40.33
2023-02-03T14:52:08.973Z,38.03
2023-02-03T14:55:06.704Z,30.83
2023-02-03T14:57:44.400Z,34.17
2023-02-03T15:00:19.970Z,41.17
2023-02-03T15:03:19.946Z,26.97
2023-02-03T15:05:54.960Z,34.37
2023-02-03T15:08:36.939Z,38.83
2023-02-03T15:11:28.016Z,30.07
2023-02-03T15:13:56.509Z,36.13
2023-02-03T15:16:24.739Z,39.23
2023-02-03T15:19:16.710Z,38.63
2023-02-03T15:21:43.551Z,41.47
2023-02-03T15:24:14.480Z,22.27
2023-02-03T15:26:55.384Z,39.27
2023-02-03T15:29:40.181Z,26.67
2023-02-03T15:32:18.365Z,35.60
2023-02-03T15:34:47.861Z,38.80
2023-02-03T15:37:20.145Z,26.63
2023-02-03T15:40:00.613Z,34.83
2023-02-03T15:42:42.269Z,32.83
2023-02-03T15:45:22.499Z,41.53
2023-02-03T15:48:01.074Z,45.10
2023-02-03T15:50:30.959Z,40.63
2023-02-03T15:53:04.085Z,44.53
2023-02-03T15:55:38.042Z,41.53
2023-02-03T15:58:04.880Z,31.80
2023-02-03T16:00:39.713Z,39.63
2023-02-03T16:03:16.464Z,37.80
2023-02-03T16:05:44.899Z,38.60
2023-02-03T16:08:42.652Z,41.27
2023-02-03T16:11:33.521Z,33.10
2023-02-03T16:14:07.581Z,36.13
2023-02-03T16:17:03.899Z,41.67
2023-02-03T16:19:38.500Z,21.90
2023-02-03T16:22:05.541Z,26.30
2023-02-03T16:24:32.305Z,35.97
2023-02-03T16:27:27.824Z,31.30
2023-02-03T16:30:33.287Z,20.87
2023-02-03T16:33:27.345Z,28.17
2023-02-03T16:36:13.251Z,36.23
2023-02-03T16:39:03.814Z,28.67
2023-02-03T16:41:50.050Z,29.00
2023-02-03T16:44:35.095Z,30.60
2023-02-03T16:47:20.219Z,27.23
2023-02-03T16:50:05.508Z,36.87
2023-02-03T16:52:32.069Z,35.57
2023-02-03T16:54:58.937Z,37.27
2023-02-03T16:57:25.422Z,40.40
2023-02-03T16:59:51.869Z,20.77
2023-02-03T17:02:18.386Z,36.97
2023-02-03T17:04:44.870Z,34.43
2023-02-03T17:07:11.323Z,30.70
2023-02-03T17:09:37.794Z,31.77
2023-02-03T17:12:04.355Z,40.73
2023-02-03T17:14:31.032Z,29.20
2023-02-03T17:16:58.618Z,32.13
2023-02-03T17:19:25.105Z,31.63
2023-02-03T17:21:52.536Z,20.37
2023-02-03T17:24:19.587Z,21.47
2023-02-03T17:26:46.079Z,27.73
2023-02-03T17:29:12.523Z,26.17
2023-02-03T17:31:39.023Z,27.80
2023-02-03T17:34:05.496Z,18.20
2023-02-03T17:36:31.987Z,25.87
2023-02-03T17:55:23.607Z,15.97
2023-02-03T17:57:50.150Z,16.47
2023-02-03T18:00:17.255Z,20.00
2023-02-03T18:02:43.891Z,19.53
2023-02-03T18:05:11.003Z,25.13
2023-02-03T18:07:37.569Z,16.97
2023-02-03T18:10:04.744Z,13.33
2023-02-03T18:12:31.212Z,13.47
2023-02-03T18:14:57.928Z,17.27
2023-02-03T18:17:24.469Z,20.80
2023-02-03T18:19:55.829Z,13.50
2023-02-03T18:22:22.870Z,13.93
2023-02-03T18:24:52.197Z,12.50
2023-02-03T18:27:18.968Z,15.10
2023-02-03T18:29:46.073Z,7.77
2023-02-03T18:32:14.248Z,12.83
2023-02-03T18:34:41.124Z,16.03
2023-02-03T18:37:08.612Z,14.00
2023-02-03T18:39:35.226Z,13.70
2023-02-03T18:42:01.713Z,11.57
2023-02-03T18:44:28.373Z,8.87
2023-02-03T18:46:54.923Z,13.23
2023-02-03T18:49:21.643Z,15.07
2023-02-03T18:51:48.112Z,5.70
2023-02-03T18:54:14.573Z,9.80
2023-02-03T18:56:41.012Z,11.83
2023-02-03T18:59:09.751Z,8.57
2023-02-03T19:01:37.098Z,7.60
2023-02-03T19:04:04.736Z,13.20
2023-02-03T19:06:33.434Z,12.00
2023-02-03T19:09:00.642Z,11.77
2023-02-03T19:11:27.199Z,14.90
2023-02-03T19:13:53.890Z,12.23
2023-02-03T19:16:20.503Z,12.20
2023-02-03T19:18:47.686Z,11.43
2023-02-03T19:21:14.722Z,7.33
2023-02-03T19:23:41.805Z,5.93
2023-02-03T19:26:09.822Z,5.27
2023-02-03T19:28:36.425Z,4.97
2023-02-03T19:31:16.157Z,9.67
2023-02-03T19:33:43.070Z,6.53
2023-02-03T19:36:09.980Z,5.47
2023-02-03T19:38:36.950Z,4.73
2023-02-03T19:41:03.731Z,5.67
2023-02-03T19:43:31.112Z,8.20
2023-02-03T19:46:00.943Z,6.57
2023-02-03T19:48:27.711Z,5.70
2023-02-03T19:50:54.296Z,4.17
2023-02-03T19:53:21.603Z,5.57
2023-02-03T19:55:48.342Z,5.20
2023-02-03T19:58:14.815Z,5.80
2023-02-03T20:00:42.646Z,3.50
2023-02-03T20:03:09.360Z,3.70
2023-02-03T20:05:36.368Z,5.03
2023-02-03T20:08:03.970Z,6.33
2023-02-03T20:10:32.509Z,2.70
2023-02-03T20:12:59.353Z,3.07
2023-02-03T20:15:25.897Z,3.23
2023-02-03T20:17:52.414Z,3.07
2023-02-03T20:20:20.731Z,7.87
2023-02-03T20:22:47.498Z,3.37
2023-02-03T20:25:14.068Z,3.27
2023-02-03T20:27:40.598Z,4.17
2023-02-03T20:30:07.908Z,3.90
2023-02-03T20:32:34.438Z,4.03
2023-02-03T20:35:01.125Z,3.10
2023-02-03T20:37:27.578Z,3.53
2023-02-03T20:39:54.104Z,6.20
2023-02-03T20:42:20.559Z,1.77
2023-02-03T20:44:48.177Z,2.97
2023-02-03T20:47:19.471Z,3.33
2023-02-03T20:49:47.831Z,3.83
2023-02-03T20:52:17.127Z,5.80
2023-02-03T20:54:44.069Z,3.30
2023-02-03T20:57:15.922Z,3.53
2023-02-03T20:59:44.516Z,2.87
2023-02-03T21:02:19.106Z,3.57
2023-02-03T21:04:57.752Z,3.00
2023-02-03T21:07:27.357Z,2.60
2023-02-03T21:09:55.677Z,3.60
2023-02-03T21:12:22.478Z,3.50
2023-02-03T21:14:49.219Z,4.30
2023-02-03T21:17:26.460Z,3.97
2023-02-03T21:19:54.208Z,6.00
2023-02-03T21:22:26.062Z,4.40
2023-02-03T21:25:01.039Z,5.67
2023-02-03T21:27:34.610Z,4.90
2023-02-03T21:30:03.563Z,3.40
2023-02-03T21:32:40.382Z,2.67
2023-02-03T21:35:39.523Z,4.43
2023-02-03T21:38:32.722Z,5.07
2023-02-03T21:41:02.013Z,4.70
2023-02-03T21:43:33.403Z,2.67
2023-02-03T21:46:00.110Z,3.40
2023-02-03T21:48:29.097Z,4.63
2023-02-03T21:51:00.670Z,4.13
2023-02-03T21:53:35.576Z,2.93
2023-02-03T21:56:43.456Z,3.40
2023-02-03T21:59:19.330Z,3.80
2023-02-03T22:01:54.757Z,1.70
2023-02-03T22:04:21.449Z,2.27
2023-02-03T22:06:49.930Z,3.40
2023-02-03T22:09:18.926Z,3.40
2023-02-03T22:11:46.051Z,1.67
2023-02-03T22:14:13.601Z,2.60
2023-02-03T22:16:40.382Z,2.30
2023-02-03T22:19:06.866Z,1.50
2023-02-03T22:21:33.383Z,5.23
2023-02-03T22:24:00.209Z,2.17
2023-02-03T22:26:26.753Z,2.90
2023-02-03T22:28:53.683Z,4.20
2023-02-03T22:31:20.714Z,1.60
2023-02-03T22:33:47.567Z,2.53
2023-02-03T22:36:14.684Z,1.97
2023-02-03T22:38:42.147Z,5.07
2023-02-03T22:41:11.804Z,2.70
2023-02-03T22:43:38.791Z,2.90
2023-02-03T22:46:06.834Z,1.43
2023-02-03T22:48:34.162Z,3.33
2023-02-03T22:51:01.439Z,4.50
2023-02-03T22:53:27.931Z,2.83
2023-02-03T22:55:54.390Z,2.53
2023-02-03T22:58:21.199Z,1.97
2023-02-03T23:00:47.854Z,2.93
2023-02-03T23:03:14.393Z,4.70
2023-02-03T23:05:40.888Z,2.30
2023-02-03T23:08:07.343Z,3.37
2023-02-03T23:10:34.042Z,2.83
2023-02-03T23:13:00.900Z,2.30
2023-02-03T23:15:28.133Z,2.50
2023-02-03T23:17:54.693Z,2.30
2023-02-03T23:20:21.243Z,3.37
2023-02-03T23:22:47.996Z,3.30
2023-02-03T23:25:14.595Z,2.30
2023-02-03T23:27:41.156Z,3.00
2023-02-03T23:30:08.695Z,3.50
2023-02-03T23:32:35.276Z,2.37
2023-02-03T23:35:20.952Z,2.80
2023-02-03T23:37:47.430Z,1.80
2023-02-03T23:40:14.500Z,1.70
2023-02-03T23:42:41.623Z,2.17
2023-02-03T23:45:11.668Z,2.67
2023-02-03T23:47:39.884Z,6.23
2023-02-03T23:50:07.552Z,3.00
2023-02-03T23:52:35.901Z,4.00
2023-02-03T23:55:04.818Z,4.00
2023-02-03T23:57:33.872Z,2.80
